createdAt,value
2022-08-07T00:00:59.972Z,12.02
2022-08-07T00:04:15.416Z,12.63
2022-08-07T00:07:18.842Z,12.23
2022-08-07T00:10:26.024Z,11.57
2022-08-07T00:13:29.146Z,12.43
2022-08-07T00:16:31.285Z,12.60
2022-08-07T00:20:00.514Z,12.60
2022-08-07T00:22:54.975Z,12.80
2022-08-07T00:26:01.555Z,12.77
2022-08-07T00:29:09.840Z,13.23
2022-08-07T00:32:15.075Z,13.13
2022-08-07T00:35:23.105Z,14.10
2022-08-07T00:38:31.132Z,13.40
2022-08-07T00:41:37.257Z,13.00
2022-08-07T00:44:47.271Z,12.40
2022-08-07T00:48:08.106Z,13.52
2022-08-07T00:51:13.872Z,13.90
2022-08-07T00:54:19.902Z,14.13
2022-08-07T00:57:26.262Z,14.13
2022-08-07T01:00:28.775Z,13.50
2022-08-07T01:03:56.904Z,13.90
2022-08-07T01:06:56.621Z,14.50
2022-08-07T01:10:06.642Z,13.83
2022-08-07T01:13:16.464Z,13.23
2022-08-07T01:16:30.318Z,14.13
2022-08-07T01:19:34.324Z,13.88
2022-08-07T01:22:54.168Z,14.07
2022-08-07T01:26:05.059Z,13.77
2022-08-07T01:29:08.020Z,13.57
2022-08-07T01:32:12.329Z,13.55
2022-08-07T01:35:17.583Z,12.73
2022-08-07T01:38:24.869Z,13.05
2022-08-07T01:41:30.214Z,12.93
2022-08-07T01:44:37.328Z,11.98
2022-08-07T01:48:19.571Z,12.13
2022-08-07T01:51:58.631Z,12.88
2022-08-07T01:54:36.788Z,12.68
2022-08-07T01:58:06.069Z,12.23
2022-08-07T02:01:25.465Z,11.98
2022-08-07T02:04:55.787Z,12.00
2022-08-07T02:08:03.201Z,12.30
2022-08-07T02:11:30.974Z,12.07
2022-08-07T02:14:40.996Z,11.97
2022-08-07T02:17:53.606Z,11.32
2022-08-07T02:20:57.588Z,11.30
2022-08-07T02:24:00.485Z,11.20
2022-08-07T02:27:04.613Z,10.75
2022-08-07T02:30:12.323Z,10.10
2022-08-07T02:33:18.049Z,9.75
2022-08-07T02:36:29.081Z,9.82
2022-08-07T02:39:42.510Z,10.10
2022-08-07T02:42:51.808Z,9.90
2022-08-07T02:46:01.615Z,9.73
2022-08-07T02:49:06.203Z,10.25
2022-08-07T02:52:14.029Z,10.02
2022-08-07T02:55:27.585Z,9.85
2022-08-07T02:58:33.865Z,9.90
2022-08-07T03:01:41.782Z,9.67
2022-08-07T03:04:53.268Z,9.35
2022-08-07T03:08:07.120Z,9.73
2022-08-07T03:11:15.258Z,10.02
2022-08-07T03:14:22.527Z,9.32
2022-08-07T03:17:25.953Z,10.03
2022-08-07T03:20:29.995Z,9.88
2022-08-07T03:23:33.632Z,10.23
2022-08-07T03:27:00.189Z,10.52
2022-08-07T03:30:10.837Z,10.18
2022-08-07T03:33:20.353Z,9.77
2022-08-07T03:36:25.935Z,10.27
2022-08-07T03:39:46.456Z,10.55
2022-08-07T03:42:55.986Z,10.93
2022-08-07T03:45:59.611Z,10.70
2022-08-07T03:49:03.514Z,10.70
2022-08-07T03:52:22.898Z,10.27
2022-08-07T03:55:57.440Z,10.18
2022-08-07T03:59:08.494Z,9.63
2022-08-07T04:02:15.093Z,9.98
2022-08-07T04:05:20.762Z,9.83
2022-08-07T04:08:34.123Z,9.98
2022-08-07T04:12:21.091Z,9.60
2022-08-07T04:15:04.977Z,9.50
2022-08-07T04:18:56.588Z,9.65
2022-08-07T04:21:37.639Z,9.23
2022-08-07T04:24:41.623Z,8.85
2022-08-07T04:27:59.188Z,9.20
2022-08-07T04:31:04.676Z,9.50
2022-08-07T04:34:16.762Z,8.90
2022-08-07T04:37:20.731Z,8.83
2022-08-07T04:40:29.699Z,8.98
2022-08-07T04:44:09.922Z,9.65
2022-08-07T04:47:56.919Z,9.63
2022-08-07T04:51:02.272Z,9.75
2022-08-07T04:54:22.827Z,9.60
2022-08-07T04:58:12.099Z,9.32
2022-08-07T05:01:32.435Z,9.77
2022-08-07T05:04:50.251Z,9.75
2022-08-07T05:08:15.023Z,9.95
2022-08-07T05:11:24.286Z,9.30
2022-08-07T05:14:52.167Z,9.18
2022-08-07T05:18:08.492Z,9.48
2022-08-07T05:21:18.328Z,8.20
2022-08-07T05:24:41.392Z,7.97
2022-08-07T05:28:16.246Z,7.30
2022-08-07T05:31:14.552Z,7.05
2022-08-07T05:34:21.037Z,7.13
2022-08-07T05:37:29.802Z,6.00
2022-08-07T05:40:50.591Z,6.30
2022-08-07T05:44:12.127Z,6.07
2022-08-07T05:47:20.925Z,6.10
2022-08-07T05:50:42.822Z,5.80
2022-08-07T05:54:13.134Z,5.95
2022-08-07T05:57:09.613Z,6.00
2022-08-07T06:00:16.869Z,5.83
2022-08-07T06:03:47.055Z,5.45
2022-08-07T06:06:56.400Z,6.13
2022-08-07T06:10:05.190Z,5.65
2022-08-07T06:13:13.664Z,5.50
2022-08-07T06:16:18.811Z,5.40
2022-08-07T06:19:52.155Z,5.40
2022-08-07T06:23:02.397Z,5.30
2022-08-07T06:26:16.717Z,5.03
2022-08-07T06:29:18.404Z,4.90
2022-08-07T06:32:21.986Z,4.47
2022-08-07T06:35:45.518Z,4.25
2022-08-07T06:38:58.793Z,4.00
2022-08-07T06:42:19.512Z,3.95
2022-08-07T06:46:01.129Z,3.70
2022-08-07T06:49:04.933Z,3.60
2022-08-07T06:52:11.424Z,3.40
2022-08-07T06:55:33.997Z,3.45
2022-08-07T07:00:13.372Z,3.03
2022-08-07T07:02:53.942Z,3.10
2022-08-07T07:06:05.032Z,3.13
2022-08-07T07:09:24.059Z,3.20
2022-08-07T07:12:48.821Z,3.13
2022-08-07T07:16:03.228Z,3.08
2022-08-07T07:19:55.311Z,3.15
2022-08-07T07:22:36.215Z,3.00
2022-08-07T07:26:32.529Z,3.10
2022-08-07T07:29:38.866Z,3.03
2022-08-07T07:32:42.651Z,3.17
2022-08-07T07:36:04.436Z,3.10
2022-08-07T07:39:09.089Z,3.20
2022-08-07T07:42:13.935Z,2.90
2022-08-07T07:45:24.503Z,3.10
2022-08-07T07:48:45.942Z,3.22
2022-08-07T07:51:57.542Z,3.40
2022-08-07T07:55:03.398Z,3.30
2022-08-07T07:58:05.977Z,3.30
2022-08-07T08:04:33.622Z,3.40
2022-08-07T08:07:42.142Z,3.70
2022-08-07T08:10:53.588Z,3.50
2022-08-07T08:13:55.898Z,3.40
2022-08-07T08:17:55.759Z,3.63
2022-08-07T08:20:23.721Z,3.50
2022-08-07T08:23:50.249Z,3.67
2022-08-07T08:27:09.634Z,3.33
2022-08-07T08:30:14.296Z,3.33
2022-08-07T08:33:20.561Z,3.40
2022-08-07T08:36:30.628Z,3.40
2022-08-07T08:39:39.081Z,3.35
2022-08-07T08:43:04.734Z,3.20
2022-08-07T08:46:17.122Z,3.20
2022-08-07T08:49:46.912Z,3.20
2022-08-07T08:53:40.432Z,2.90
2022-08-07T08:56:49.829Z,2.92
2022-08-07T09:00:01.704Z,2.67
2022-08-07T09:03:47.410Z,3.00
2022-08-07T09:07:00.646Z,2.90
2022-08-07T09:10:22.462Z,2.88
2022-08-07T09:13:46.274Z,2.80
2022-08-07T09:17:07.841Z,2.50
2022-08-07T09:20:58.612Z,2.80
2022-08-07T09:24:31.146Z,2.63
2022-08-07T09:28:02.966Z,2.67
2022-08-07T09:31:38.289Z,2.50
2022-08-07T09:36:04.464Z,2.50
2022-08-07T09:39:11.397Z,2.38
2022-08-07T09:43:00.542Z,2.50
2022-08-07T09:47:51.360Z,2.60
2022-08-07T09:50:19.210Z,2.40
2022-08-07T09:53:26.732Z,2.70
2022-08-07T09:57:18.702Z,2.38
2022-08-07T10:00:30.035Z,2.50
2022-08-07T10:04:05.879Z,2.63
2022-08-07T10:07:53.555Z,2.17
2022-08-07T10:12:00.318Z,2.50
2022-08-07T10:14:56.997Z,2.28
2022-08-07T10:18:08.560Z,2.20
2022-08-07T10:22:11.994Z,2.42
2022-08-07T10:25:23.888Z,2.40
2022-08-07T10:29:21.651Z,2.40
2022-08-07T10:32:53.725Z,2.53
2022-08-07T10:36:29.256Z,2.65
2022-08-07T10:40:09.266Z,2.50
2022-08-07T10:43:29.833Z,2.40
2022-08-07T10:46:51.126Z,2.30
2022-08-07T10:50:05.616Z,2.38
2022-08-07T10:53:21.522Z,2.20
2022-08-07T10:57:13.000Z,2.40
2022-08-07T11:00:39.774Z,2.30
2022-08-07T11:04:23.372Z,2.20
2022-08-07T11:07:59.662Z,2.22
2022-08-07T11:11:15.580Z,2.10
2022-08-07T11:14:43.411Z,2.20
2022-08-07T11:17:54.021Z,2.20
2022-08-07T11:21:14.093Z,2.10
2022-08-07T11:24:38.984Z,2.08
2022-08-07T11:28:15.323Z,2.00
2022-08-07T11:31:35.337Z,2.28
2022-08-07T11:34:50.002Z,2.20
2022-08-07T11:38:28.270Z,2.20
2022-08-07T11:42:02.362Z,2.30
2022-08-07T11:45:35.335Z,2.28
2022-08-07T11:48:46.685Z,2.30
2022-08-07T11:52:09.205Z,2.30
2022-08-07T11:56:24.841Z,2.40
2022-08-07T12:00:08.297Z,2.40
2022-08-07T12:02:52.403Z,2.10
2022-08-07T12:06:37.013Z,2.20
2022-08-07T12:10:05.582Z,2.10
2022-08-07T12:13:39.200Z,1.90
2022-08-07T12:17:07.517Z,2.17
2022-08-07T12:20:30.087Z,1.92
2022-08-07T12:24:06.705Z,2.17
2022-08-07T12:27:18.659Z,2.13
2022-08-07T12:30:36.285Z,1.97
2022-08-07T12:33:56.181Z,1.92
2022-08-07T12:37:08.158Z,1.80
2022-08-07T12:40:46.932Z,1.90
2022-08-07T12:44:03.401Z,2.00
2022-08-07T12:47:07.021Z,1.90
2022-08-07T12:50:49.374Z,1.98
2022-08-07T12:54:38.123Z,2.10
2022-08-07T12:58:00.738Z,1.70
2022-08-07T13:01:32.175Z,1.90
2022-08-07T13:06:02.848Z,1.77
2022-08-07T13:09:12.711Z,1.98
2022-08-07T13:12:35.312Z,1.83
2022-08-07T13:15:47.711Z,1.83
2022-08-07T13:19:00.973Z,1.90
2022-08-07T13:22:27.570Z,1.80
2022-08-07T13:25:38.759Z,1.98
2022-08-07T13:28:58.270Z,1.80
2022-08-07T13:32:06.379Z,1.90
2022-08-07T13:35:59.631Z,1.90
2022-08-07T13:40:32.904Z,1.80
2022-08-07T13:42:56.393Z,1.80
2022-08-07T13:46:20.862Z,1.85
2022-08-07T13:50:33.118Z,1.77
2022-08-07T13:52:48.687Z,1.90
2022-08-07T13:55:54.518Z,1.90
2022-08-07T13:59:02.518Z,1.88
2022-08-07T14:02:12.865Z,1.88
2022-08-07T14:05:23.120Z,1.80
2022-08-07T14:08:25.362Z,1.90
2022-08-07T14:11:53.140Z,1.90
2022-08-07T14:14:56.368Z,1.88
2022-08-07T14:18:27.259Z,1.90
2022-08-07T14:22:41.208Z,1.90
2022-08-07T14:25:15.778Z,2.10
2022-08-07T14:28:19.138Z,1.80
2022-08-07T14:31:23.968Z,2.00
2022-08-07T14:34:30.263Z,1.92
2022-08-07T14:37:38.964Z,2.00
2022-08-07T14:40:48.630Z,1.95
2022-08-07T14:43:57.455Z,1.80
2022-08-07T14:47:08.907Z,2.03
2022-08-07T14:50:19.785Z,1.98
2022-08-07T14:56:48.215Z,1.88
2022-08-07T15:00:05.154Z,1.80
2022-08-07T15:03:17.449Z,1.85
2022-08-07T15:06:25.210Z,2.10
2022-08-07T15:09:59.254Z,1.80
2022-08-07T15:12:54.968Z,1.80
2022-08-07T15:20:30.172Z,2.10
2022-08-07T15:23:17.033Z,1.77
2022-08-07T15:26:33.352Z,1.98
2022-08-07T15:30:04.836Z,2.08
2022-08-07T15:33:05.616Z,1.90
2022-08-07T15:37:03.459Z,2.00
2022-08-07T15:39:58.304Z,1.92
2022-08-07T15:43:53.013Z,1.80
2022-08-07T15:46:51.606Z,1.83
2022-08-07T15:50:04.095Z,2.20
2022-08-07T15:53:51.740Z,1.90
2022-08-07T15:56:59.743Z,2.00
2022-08-07T16:00:04.347Z,1.95
2022-08-07T16:03:46.327Z,1.80
2022-08-07T16:07:00.612Z,1.73
2022-08-07T16:10:25.173Z,2.00
2022-08-07T16:13:58.917Z,1.80
2022-08-07T16:18:02.587Z,1.80
2022-08-07T16:21:57.153Z,1.80
2022-08-07T16:24:40.774Z,1.67
2022-08-07T16:30:07.581Z,1.77
2022-08-07T16:32:00.548Z,1.73
2022-08-07T16:35:58.527Z,1.60
2022-08-07T16:39:17.807Z,1.80
2022-08-07T16:43:05.945Z,1.80
2022-08-07T16:50:27.886Z,1.90
2022-08-07T16:54:02.197Z,1.90
2022-08-07T16:56:55.235Z,1.90
2022-08-07T17:00:15.101Z,2.00
2022-08-07T17:03:57.679Z,1.92
2022-08-07T17:07:04.117Z,2.10
2022-08-07T17:10:32.350Z,2.30
2022-08-07T17:14:17.829Z,2.08
2022-08-07T17:17:16.824Z,2.10
2022-08-07T17:20:35.514Z,2.22
2022-08-07T17:23:59.920Z,2.00
2022-08-07T17:27:10.143Z,2.15
2022-08-07T17:30:27.247Z,2.03
2022-08-07T17:34:08.891Z,2.10
2022-08-07T17:37:09.638Z,2.20
2022-08-07T17:40:57.342Z,2.33
2022-08-07T17:44:14.899Z,2.10
2022-08-07T17:47:56.575Z,2.03
2022-08-07T17:51:04.456Z,2.33
2022-08-07T17:54:40.140Z,2.30
2022-08-07T17:57:58.891Z,2.58
2022-08-07T18:01:21.536Z,2.33
2022-08-07T18:04:34.474Z,2.30
2022-08-07T18:07:36.615Z,2.30
2022-08-07T18:12:07.996Z,2.40
2022-08-07T18:14:23.832Z,2.40
2022-08-07T18:18:47.599Z,2.75
2022-08-07T18:21:37.300Z,2.55
2022-08-07T18:24:50.982Z,2.40
2022-08-07T18:28:35.864Z,2.80
2022-08-07T18:31:52.540Z,2.70
2022-08-07T18:35:16.071Z,2.90
2022-08-07T18:38:55.110Z,2.88
2022-08-07T18:42:22.377Z,2.80
2022-08-07T18:46:25.422Z,2.75
2022-08-07T18:50:30.926Z,2.80
2022-08-07T18:53:16.318Z,2.90
2022-08-07T18:56:39.266Z,3.05
2022-08-07T19:00:33.046Z,2.80
2022-08-07T19:04:15.912Z,2.80
2022-08-07T19:07:52.018Z,2.90
2022-08-07T19:11:35.764Z,3.15
2022-08-07T19:14:51.091Z,3.17
2022-08-07T19:18:18.280Z,3.00
2022-08-07T19:22:04.454Z,3.20
2022-08-07T19:26:22.607Z,3.10
2022-08-07T19:30:57.473Z,4.47
2022-08-07T19:32:18.761Z,7.05
2022-08-07T19:35:33.301Z,6.17
2022-08-07T19:38:53.380Z,4.97
2022-08-07T19:42:08.059Z,5.00
2022-08-07T19:46:01.134Z,4.53
2022-08-07T19:48:54.470Z,4.00
2022-08-07T19:52:00.258Z,3.60
2022-08-07T19:55:03.147Z,3.40
2022-08-07T19:58:14.304Z,3.03
2022-08-07T20:01:19.166Z,3.80
2022-08-07T20:04:30.950Z,3.65
2022-08-07T20:07:46.536Z,3.53
2022-08-07T20:11:02.177Z,3.53
2022-08-07T20:14:07.272Z,3.70
2022-08-07T20:17:25.989Z,3.60
2022-08-07T20:20:30.096Z,3.60
2022-08-07T20:23:41.788Z,3.50
2022-08-07T20:26:52.403Z,3.88
2022-08-07T20:30:00.309Z,3.80
2022-08-07T20:33:05.387Z,3.60
2022-08-07T20:36:21.491Z,3.90
2022-08-07T20:40:32.590Z,3.70
2022-08-07T20:43:47.494Z,3.80
2022-08-07T20:47:05.708Z,4.28
2022-08-07T20:50:12.297Z,5.15
2022-08-07T20:53:17.500Z,5.20
2022-08-07T21:01:19.585Z,5.30
2022-08-07T21:04:29.810Z,5.13
2022-08-07T21:07:34.699Z,4.50
2022-08-07T21:10:37.900Z,4.40
2022-08-07T21:14:29.505Z,4.33
2022-08-07T21:18:03.270Z,4.55
2022-08-07T21:20:47.993Z,4.30
2022-08-07T21:24:15.267Z,4.10
2022-08-07T21:27:40.086Z,4.00
2022-08-07T21:31:16.884Z,4.00
2022-08-07T21:34:46.215Z,4.00
2022-08-07T21:38:00.282Z,4.25
2022-08-07T21:41:10.757Z,4.57
2022-08-07T21:44:44.795Z,4.10
2022-08-07T21:48:26.843Z,4.47
2022-08-07T21:51:32.163Z,4.05
2022-08-07T21:54:34.145Z,4.68
2022-08-07T21:57:53.639Z,4.22
2022-08-07T22:00:59.664Z,4.20
2022-08-07T22:04:07.644Z,4.17
2022-08-07T22:07:19.083Z,4.10
2022-08-07T22:10:32.929Z,4.20
2022-08-07T22:13:51.233Z,4.22
2022-08-07T22:17:00.984Z,4.10
2022-08-07T22:20:23.480Z,4.23
2022-08-07T22:23:32.519Z,4.05
2022-08-07T22:26:44.659Z,4.30
2022-08-07T22:29:58.854Z,4.32
2022-08-07T22:33:09.329Z,4.38
2022-08-07T22:36:22.758Z,4.57
2022-08-07T22:39:35.194Z,4.47
2022-08-07T22:43:03.351Z,4.60
2022-08-07T22:47:02.461Z,4.72
2022-08-07T22:50:07.046Z,4.55
2022-08-07T22:54:05.480Z,4.57
2022-08-07T22:57:25.734Z,4.55
2022-08-07T23:00:59.616Z,4.68
2022-08-07T23:04:32.982Z,4.63
2022-08-07T23:08:22.365Z,4.68
2022-08-07T23:11:45.690Z,4.50
2022-08-07T23:16:05.696Z,4.63
2022-08-07T23:19:48.062Z,4.57
2022-08-07T23:24:06.216Z,4.70
2022-08-07T23:27:18.014Z,4.88
2022-08-07T23:31:11.886Z,4.77
2022-08-07T23:34:38.085Z,5.10
2022-08-07T23:38:19.275Z,5.15
2022-08-07T23:41:47.513Z,5.20
2022-08-07T23:45:32.833Z,5.47
2022-08-07T23:49:19.436Z,5.30
2022-08-07T23:52:59.616Z,4.97
2022-08-07T23:56:15.494Z,5.22
